EDDMGCHI

Guest
Details From EDDM - Muenchen Franz-josef Strauss
To GCHI - Hierro
Flight Number -
Tags Generated
Created
Modified
Stats Distance 1,845 nm / 3,418 km
Max Altitude 0 ft / 0 m
Waypoints 6
Social Downloads 1
Likes 0
Share VATSIM

Download

Looking for another format? Having issues loading an existing format? Contact us
Advertisement - Login to hide

Notes

Generated

Route

EDDM UBIMA GAI24 ZRZ SOLAX GCHI

ID Type Via Altitude Latitude Longitude Leg Dist Tot Dist Heading (true) Name
O EDDM APT - 0 ft / 0 m 48.34069˚ 11.75108˚ - 0 nm - -
UBIMA FIX - 0 ft / 0 m 46.12639˚ 6.70111˚ 245 nm 245 nm 239° / 235° -
GAI24 FIX - 0 ft / 0 m 43.86583˚ 2.35472˚ 229 nm 474 nm 235° / 232° -
ZRZ NDB - 0 ft / 0 m 41.73052˚ -1.19331˚ 202 nm 676 nm 232° / 229° ZARAGOZA NDB
SOLAX FIX - 0 ft / 0 m 39.24255˚ -4.94918˚ 227 nm 903 nm 230° / 228° -
O GCHI APT - 0 ft / 0 m 27.81985˚ -17.88997˚ 941 nm 1845 nm 227° / 220° -

Altitude Profile

Advertisement - Login to hide

Weather


0- 5 10 15 20 25 30 35+ Temperature / ° C

Clouds and Precipitation
Forecast for 2017-12-14 06:00 UTC. Updated an hour ago

Ground ~20,000 ft ~40,000 ft Winds

EDDM

Details ICAO EDDM (MUC)
Name Muenchen Franz-Josef Strauss
Region Germany - Civil
Timezone Europe/Berlin (UTC+1.0)
Stats Elevation 1,487 ft / 453 m (AMSL)
Location 48.353786° 11.786117°
Runways 2
Magnetic Variation 3.161° E

METAR

EDDM 140620Z 24025G35KT 9999 -SHRA VCTS FEW030 SCT034CB BKN100 07/02 Q0997 TEMPO 24035G50KT 4000 TSRA BKN015CB

Decode

TAF

TAF EDDM 140500Z 1406/1512 25020G35KT 9999 SCT020 BKN040 TEMPO 1406/1410 26030G45KT 4000 SHRA BKN020TCU PROB30 TEMPO 1407/1409 TSGS BKN014CB BECMG 1416/1418 22010KT TEMPO 1421/1507 4000 RASN BKN008

Decode

Departure Runways

ID Width Length Bearing (true) Bearing (mag) Surface Threshold Offset Overrun Length
08L 197 ft / 60 m 13,086 ft / 3,989 m 83.38° 80.22° Concrete 0 ft / 0 m 0 ft / 0 m
08R 197 ft / 60 m 13,086 ft / 3,989 m 83.37° 80.21° Concrete 0 ft / 0 m 0 ft / 0 m
26L 197 ft / 60 m 13,086 ft / 3,989 m 263.41° 260.25° Concrete 0 ft / 0 m 0 ft / 0 m
26R 197 ft / 60 m 13,086 ft / 3,989 m 263.42° 260.26° Concrete 0 ft / 0 m 0 ft / 0 m

GCHI

Details ICAO GCHI (VDE)
Name Hierro
Region Canary Islands
Timezone Atlantic/Canary (UTC+0.0)
Stats Elevation 337 ft / 103 m (AMSL)
Location 27.814848° -17.887052°
Runways 1
Magnetic Variation 5.629° W

METAR

GCHI 140600Z AUTO 05018KT 9000 NSC 19/13 Q1024

Decode

TAF

TAF GCHI 140200Z 1403/1503 04020KT 9999 FEW030 TX21/1414Z TN17/1406Z PROB40 TEMPO 1403/1406 03020G30KT

Decode

Destination Runways

ID Width Length Bearing (true) Bearing (mag) Surface Threshold Offset Overrun Length
16 98 ft / 30 m 4,110 ft / 1,253 m 152.71° 158.34° Asphalt 0 ft / 0 m 112 ft / 34 m
34 98 ft / 30 m 4,110 ft / 1,253 m 332.71° 338.34° Asphalt 0 ft / 0 m 105 ft / 32 m